KMOP

Mount Pleasant Municipal Airport

Mount Pleasant, Michigan, USA
METAR KMOP 210357Z AUTO 00000KT 10SM CLR 11/10 A3021 RMK AO2 T01050101
Observed Flight Rules
May-21 @ 03:57 UTC (3 hours ago) Visual Flight Rules
Visibility Clouds
10 miles
  • Clear skies
Temperatures Readings
Current 11°C / 52°F
Dewpoint 10°C / 50°F
Humidity 94%
Altimeter 30.21" Hg
Pressure 1023 hPa
Elevation 230
METAR KMOP 210357Z AUTO 00000KT 10SM CLR 11/10 A3021 RMK AO2 T01050101
Observed Flight Rules
May-21 @ 03:57 UTC
(3 hours ago)
VFR
Clouds
  • Clear skies
Temperature Dewpoint
11°C / 52°F 10°C / 50°F
Humidity Altimeter Pressure
94% 30.21" Hg 1023 hPa